createdAt,value
2018-01-15T00:00:16.021Z,12.53
2018-01-15T00:02:43.531Z,11.07
2018-01-15T00:05:11.822Z,10.67
2018-01-15T00:07:40.141Z,11.40
2018-01-15T00:10:07.650Z,11.27
2018-01-15T00:12:35.196Z,11.90
2018-01-15T00:15:02.722Z,10.93
2018-01-15T00:17:30.217Z,12.53
2018-01-15T00:19:57.959Z,11.97
2018-01-15T00:22:33.058Z,11.80
2018-01-15T00:25:00.582Z,13.20
2018-01-15T00:27:28.104Z,12.40
2018-01-15T00:29:55.601Z,13.33
2018-01-15T00:32:23.877Z,13.93
2018-01-15T00:34:52.193Z,13.00
2018-01-15T00:37:19.711Z,12.80
2018-01-15T00:39:47.224Z,13.17
2018-01-15T00:42:14.765Z,15.90
2018-01-15T00:44:42.314Z,12.07
2018-01-15T00:47:09.833Z,12.80
2018-01-15T00:49:38.157Z,11.87
2018-01-15T00:52:05.697Z,13.40
2018-01-15T00:54:33.206Z,11.50
2018-01-15T00:57:00.762Z,12.70
2018-01-15T00:59:28.322Z,14.20
2018-01-15T01:01:55.838Z,12.70
2018-01-15T01:04:23.353Z,12.40
2018-01-15T01:06:50.874Z,12.53
2018-01-15T01:09:18.389Z,13.70
2018-01-15T01:11:46.694Z,12.37
2018-01-15T01:14:14.201Z,12.23
2018-01-15T01:16:41.679Z,11.63
2018-01-15T01:19:09.921Z,12.87
2018-01-15T01:21:37.437Z,12.60
2018-01-15T01:24:04.961Z,12.07
2018-01-15T01:26:32.442Z,12.60
2018-01-15T01:28:59.931Z,12.20
2018-01-15T01:31:27.412Z,12.87
2018-01-15T01:33:55.719Z,12.57
2018-01-15T01:36:23.192Z,11.97
2018-01-15T01:38:50.698Z,12.57
2018-01-15T01:41:18.170Z,11.70
2018-01-15T01:43:45.650Z,12.60
2018-01-15T01:46:13.162Z,14.00
2018-01-15T01:48:40.671Z,12.83
2018-01-15T01:51:08.484Z,12.27
2018-01-15T01:53:35.967Z,14.07
2018-01-15T01:56:03.460Z,12.60
2018-01-15T01:58:31.223Z,12.40
2018-01-15T02:00:58.719Z,13.40
2018-01-15T02:03:26.231Z,12.30
2018-01-15T02:05:54.621Z,13.47
2018-01-15T02:08:22.133Z,13.73
2018-01-15T02:10:49.703Z,13.10
2018-01-15T02:13:17.259Z,13.20
2018-01-15T02:15:44.784Z,14.40
2018-01-15T02:18:12.352Z,14.40
2018-01-15T02:20:39.851Z,13.80
2018-01-15T02:23:07.379Z,13.97
2018-01-15T02:25:35.735Z,13.27
2018-01-15T02:28:03.301Z,12.20
2018-01-15T02:30:31.486Z,12.90
2018-01-15T02:32:59.054Z,13.90
2018-01-15T02:35:26.607Z,13.03
2018-01-15T02:37:54.140Z,14.13
2018-01-15T02:40:21.630Z,13.03
2018-01-15T02:42:49.186Z,13.40
2018-01-15T02:45:16.730Z,14.17
2018-01-15T02:47:44.268Z,13.77
2018-01-15T02:50:11.818Z,13.50
2018-01-15T02:52:39.337Z,12.20
2018-01-15T02:55:07.694Z,13.87
2018-01-15T02:57:35.238Z,14.90
2018-01-15T03:00:02.825Z,13.83
2018-01-15T03:02:30.408Z,13.33
2018-01-15T03:04:57.928Z,11.57
2018-01-15T03:07:25.427Z,13.20
2018-01-15T03:09:53.253Z,12.47
2018-01-15T03:12:20.830Z,11.33
2018-01-15T03:14:48.362Z,12.47
2018-01-15T03:17:15.877Z,13.60
2018-01-15T03:19:43.430Z,14.10
2018-01-15T03:22:10.952Z,13.67
2018-01-15T03:24:38.471Z,14.03
2018-01-15T03:27:06.026Z,13.93
2018-01-15T03:29:33.522Z,13.90
2018-01-15T03:32:01.841Z,12.67
2018-01-15T03:34:29.411Z,13.13
2018-01-15T03:36:57.687Z,13.30
2018-01-15T03:39:25.188Z,13.47
2018-01-15T03:41:52.718Z,14.03
2018-01-15T03:44:20.202Z,12.57
2018-01-15T03:46:47.697Z,13.57
2018-01-15T03:49:15.971Z,13.03
2018-01-15T03:51:43.477Z,12.87
2018-01-15T03:54:10.952Z,13.37
2018-01-15T03:56:38.451Z,13.20
2018-01-15T03:59:05.970Z,12.87
2018-01-15T04:01:33.530Z,14.73
2018-01-15T04:04:01.087Z,13.30
2018-01-15T04:06:28.641Z,12.43
2018-01-15T04:08:56.207Z,12.97
2018-01-15T04:11:23.711Z,11.50
2018-01-15T04:13:51.247Z,13.33
2018-01-15T04:16:18.776Z,15.40
2018-01-15T04:18:46.303Z,12.90
2018-01-15T04:21:13.899Z,13.70
2018-01-15T04:23:41.419Z,14.13
2018-01-15T04:26:08.953Z,14.70
2018-01-15T04:28:36.472Z,15.20
2018-01-15T04:31:04.004Z,14.33
2018-01-15T04:33:31.555Z,14.67
2018-01-15T04:35:59.058Z,15.80
2018-01-15T04:38:26.615Z,14.03
2018-01-15T04:40:54.121Z,14.20
2018-01-15T04:43:21.623Z,13.50
2018-01-15T04:45:49.170Z,15.10
2018-01-15T04:48:16.660Z,15.43
2018-01-15T04:50:44.205Z,14.73
2018-01-15T04:53:11.691Z,14.03
2018-01-15T04:55:39.983Z,15.30
2018-01-15T04:58:07.507Z,15.20
2018-01-15T05:00:35.044Z,16.23
2018-01-15T05:03:02.585Z,15.60
2018-01-15T05:05:30.109Z,16.40
2018-01-15T05:07:57.635Z,16.13
2018-01-15T05:10:25.160Z,17.73
2018-01-15T05:12:52.679Z,16.63
2018-01-15T05:15:20.660Z,17.60
2018-01-15T05:17:48.137Z,18.90
2018-01-15T05:20:15.674Z,17.73
2018-01-15T05:22:43.196Z,16.50
2018-01-15T05:25:10.685Z,18.90
2018-01-15T05:27:38.939Z,18.90
2018-01-15T05:30:06.398Z,20.33
2018-01-15T05:32:34.647Z,19.00
2018-01-15T05:35:02.159Z,19.43
2018-01-15T05:37:30.426Z,18.70
2018-01-15T05:39:58.666Z,18.50
2018-01-15T05:42:26.152Z,19.67
2018-01-15T05:44:54.416Z,17.87
2018-01-15T05:47:22.679Z,18.30
2018-01-15T05:49:50.171Z,19.00
2018-01-15T05:52:17.678Z,20.50
2018-01-15T05:54:45.189Z,18.30
2018-01-15T05:57:12.646Z,20.80
2018-01-15T05:59:40.134Z,18.13
2018-01-15T06:02:07.611Z,19.70
2018-01-15T06:04:35.095Z,19.60
2018-01-15T06:07:03.322Z,18.30
2018-01-15T06:09:30.813Z,19.50
2018-01-15T06:11:58.306Z,19.00
2018-01-15T06:14:25.786Z,16.93
2018-01-15T06:16:53.749Z,17.27
2018-01-15T06:19:21.252Z,18.43
2018-01-15T06:21:48.761Z,18.67
2018-01-15T06:24:16.274Z,19.87
2018-01-15T06:26:43.748Z,18.30
2018-01-15T06:29:11.296Z,19.73
2018-01-15T06:31:39.530Z,18.93
2018-01-15T06:34:07.799Z,18.47
2018-01-15T06:36:35.297Z,20.43
2018-01-15T06:39:02.782Z,18.13
2018-01-15T06:41:31.029Z,16.43
2018-01-15T06:43:58.516Z,19.67
2018-01-15T06:46:26.762Z,20.07
2018-01-15T06:48:54.258Z,19.17
2018-01-15T06:51:21.732Z,17.00
2018-01-15T06:53:49.231Z,18.73
2018-01-15T06:56:16.702Z,17.33
2018-01-15T06:58:44.220Z,19.03
2018-01-15T07:01:11.768Z,18.93
2018-01-15T07:03:39.296Z,17.40
2018-01-15T07:06:06.794Z,19.60
2018-01-15T07:08:34.282Z,16.83
2018-01-15T07:11:01.760Z,19.57
2018-01-15T07:13:30.747Z,17.50
2018-01-15T07:15:58.236Z,18.60
2018-01-15T07:18:25.736Z,17.40
2018-01-15T07:20:53.244Z,17.80
2018-01-15T07:23:20.761Z,18.27
2018-01-15T07:25:48.265Z,17.87
2018-01-15T07:28:15.765Z,17.70
2018-01-15T07:30:43.287Z,16.93
2018-01-15T07:33:10.771Z,18.10
2018-01-15T07:35:38.274Z,18.77
2018-01-15T07:38:06.540Z,18.10
2018-01-15T07:40:34.032Z,19.23
2018-01-15T07:43:01.557Z,18.87
2018-01-15T07:45:29.865Z,18.50
2018-01-15T07:47:57.365Z,18.97
2018-01-15T07:50:25.693Z,17.83
2018-01-15T07:52:53.182Z,17.73
2018-01-15T07:55:20.675Z,19.00
2018-01-15T07:57:48.933Z,17.73
2018-01-15T08:00:16.441Z,17.10
2018-01-15T08:02:43.928Z,16.03
2018-01-15T08:05:11.853Z,17.63
2018-01-15T08:07:39.351Z,20.00
2018-01-15T08:10:06.841Z,17.63
2018-01-15T08:12:34.366Z,18.60
2018-01-15T08:15:01.904Z,18.10
2018-01-15T08:17:29.409Z,17.73
2018-01-15T08:19:56.947Z,16.27
2018-01-15T08:22:24.441Z,16.60
2018-01-15T08:24:51.936Z,16.43
2018-01-15T08:27:19.440Z,16.63
2018-01-15T08:29:46.944Z,16.50
2018-01-15T08:32:14.467Z,18.17
2018-01-15T08:34:41.967Z,19.00
2018-01-15T08:37:09.476Z,19.60
2018-01-15T08:39:36.975Z,17.00
2018-01-15T08:42:04.468Z,18.80
2018-01-15T08:44:31.979Z,17.60
2018-01-15T08:46:59.466Z,17.63
2018-01-15T08:49:26.983Z,15.47
2018-01-15T08:51:55.251Z,16.40
2018-01-15T08:54:22.770Z,17.77
2018-01-15T08:56:50.272Z,18.80
2018-01-15T08:59:18.135Z,17.90
2018-01-15T09:01:46.094Z,16.97
2018-01-15T09:04:13.692Z,17.07
2018-01-15T09:06:41.945Z,18.53
2018-01-15T09:09:09.474Z,17.90
2018-01-15T09:11:36.963Z,17.20
2018-01-15T09:14:04.467Z,16.93
2018-01-15T09:16:31.967Z,17.07
2018-01-15T09:18:59.486Z,16.90
2018-01-15T09:21:26.976Z,16.97
2018-01-15T09:23:55.053Z,16.43
2018-01-15T09:26:22.857Z,18.43
2018-01-15T09:28:50.373Z,18.27
2018-01-15T09:31:17.844Z,19.30
2018-01-15T09:33:45.964Z,17.80
2018-01-15T09:36:13.459Z,14.40
2018-01-15T09:38:40.956Z,18.30
2018-01-15T09:41:08.457Z,18.77
2018-01-15T09:43:35.959Z,17.03
2018-01-15T09:46:03.489Z,13.87
2018-01-15T09:48:30.976Z,15.40
2018-01-15T09:50:59.410Z,16.20
2018-01-15T09:53:26.897Z,15.80
2018-01-15T09:55:55.176Z,15.30
2018-01-15T09:58:23.439Z,12.33
2018-01-15T10:00:50.923Z,16.40
2018-01-15T10:03:19.194Z,18.47
2018-01-15T10:05:47.450Z,17.13
2018-01-15T10:08:14.938Z,17.20
2018-01-15T10:10:42.445Z,17.90
2018-01-15T10:13:09.925Z,17.63
2018-01-15T10:15:38.185Z,15.97
2018-01-15T10:18:05.661Z,15.53
2018-01-15T10:20:33.166Z,16.63
2018-01-15T10:23:00.695Z,14.63
2018-01-15T10:25:28.942Z,16.37
2018-01-15T10:27:56.707Z,16.67
2018-01-15T10:30:24.189Z,16.50
2018-01-15T10:32:51.688Z,18.47
2018-01-15T10:35:19.184Z,14.47
2018-01-15T10:37:47.554Z,16.40
2018-01-15T10:40:15.054Z,17.37
2018-01-15T10:42:42.558Z,17.80
2018-01-15T10:45:10.952Z,16.63
2018-01-15T10:47:38.433Z,18.03
2018-01-15T10:50:05.928Z,16.57
2018-01-15T10:52:33.427Z,15.70
2018-01-15T10:55:00.908Z,15.50
2018-01-15T10:57:28.419Z,16.00
2018-01-15T10:59:55.919Z,14.67
2018-01-15T11:02:23.396Z,16.90
2018-01-15T11:04:50.898Z,15.40
2018-01-15T11:07:19.164Z,16.60
2018-01-15T11:09:46.728Z,13.57
2018-01-15T11:12:14.269Z,15.07
2018-01-15T11:14:41.757Z,13.93
2018-01-15T11:17:09.460Z,17.37
2018-01-15T11:22:04.294Z,13.40
2018-01-15T11:24:31.820Z,14.50
2018-01-15T11:27:00.377Z,16.10
2018-01-15T11:29:27.840Z,13.30
2018-01-15T11:31:56.146Z,15.00
2018-01-15T11:34:23.641Z,15.13
2018-01-15T11:36:51.261Z,15.10
2018-01-15T11:39:18.754Z,12.83
2018-01-15T11:41:46.250Z,14.40
2018-01-15T11:44:13.735Z,14.20
2018-01-15T11:46:41.242Z,15.67
2018-01-15T11:49:08.733Z,11.97
2018-01-15T11:51:36.998Z,12.80
2018-01-15T11:54:04.481Z,13.83
2018-01-15T11:56:34.984Z,14.23
2018-01-15T11:59:02.458Z,13.97
2018-01-15T12:01:29.957Z,12.50
2018-01-15T12:03:57.455Z,13.90
2018-01-15T12:06:24.941Z,13.93
2018-01-15T12:08:52.433Z,13.60
2018-01-15T12:11:19.929Z,13.20
2018-01-15T12:13:47.397Z,14.60
2018-01-15T12:16:16.673Z,15.87
2018-01-15T12:18:44.151Z,15.20
2018-01-15T12:21:12.420Z,13.53
2018-01-15T12:23:39.883Z,14.93
2018-01-15T12:26:07.374Z,13.90
2018-01-15T12:28:34.862Z,14.30
2018-01-15T12:31:02.346Z,16.53
2018-01-15T12:33:29.846Z,16.73
2018-01-15T12:35:57.336Z,14.87
2018-01-15T12:38:24.895Z,15.20
2018-01-15T12:40:52.373Z,15.30
2018-01-15T12:43:19.847Z,15.03
2018-01-15T12:45:48.143Z,15.30
2018-01-15T12:48:15.628Z,15.90
2018-01-15T12:50:43.129Z,12.17
2018-01-15T12:53:10.604Z,14.60
2018-01-15T12:55:38.073Z,11.13
2018-01-15T12:58:05.598Z,12.20
2018-01-15T13:00:33.076Z,13.90
2018-01-15T13:03:00.600Z,14.70
2018-01-15T13:05:39.839Z,13.87
2018-01-15T13:08:11.995Z,13.77
2018-01-15T13:10:39.521Z,13.87
2018-01-15T13:13:07.019Z,13.13
2018-01-15T13:15:34.539Z,11.73
2018-01-15T13:18:02.039Z,13.00
2018-01-15T13:20:29.563Z,14.17
2018-01-15T13:22:57.081Z,11.20
2018-01-15T13:25:24.623Z,11.80
2018-01-15T13:27:52.181Z,11.70
2018-01-15T13:30:19.743Z,12.40
2018-01-15T13:32:47.315Z,10.50
2018-01-15T13:35:14.845Z,11.67
2018-01-15T13:37:42.371Z,11.27
2018-01-15T13:40:09.938Z,10.50
2018-01-15T13:42:37.466Z,11.07
2018-01-15T13:45:04.977Z,10.20
2018-01-15T13:47:32.509Z,10.57
2018-01-15T13:50:00.076Z,11.30
2018-01-15T13:52:27.649Z,8.63
2018-01-15T13:54:55.137Z,9.23
2018-01-15T13:57:22.874Z,9.23
2018-01-15T13:59:50.377Z,9.37
2018-01-15T14:02:17.888Z,9.70
2018-01-15T14:04:45.464Z,10.93
2018-01-15T14:07:13.173Z,9.63
2018-01-15T14:09:40.968Z,8.23
2018-01-15T14:12:08.460Z,8.60
2018-01-15T14:14:36.735Z,8.47
2018-01-15T14:17:04.263Z,7.67
2018-01-15T14:19:31.752Z,8.37
2018-01-15T14:22:00.044Z,7.53
2018-01-15T14:24:27.529Z,5.60
2018-01-15T14:26:55.016Z,5.40
2018-01-15T14:29:22.663Z,6.13
2018-01-15T14:31:50.876Z,5.30
2018-01-15T14:34:19.127Z,5.13
2018-01-15T14:36:46.989Z,5.73
2018-01-15T14:39:14.482Z,5.40
2018-01-15T14:41:42.000Z,5.40
2018-01-15T14:44:09.585Z,6.13
2018-01-15T14:46:37.105Z,5.60
2018-01-15T14:49:04.596Z,5.53
2018-01-15T14:51:32.090Z,4.80
2018-01-15T14:53:59.586Z,5.47
2018-01-15T14:56:27.378Z,5.27
2018-01-15T14:58:54.861Z,5.17
2018-01-15T15:01:22.347Z,4.77
2018-01-15T15:03:49.859Z,4.83
2018-01-15T15:06:18.851Z,5.67
2018-01-15T15:08:46.357Z,5.63
2018-01-15T15:11:13.862Z,5.90
2018-01-15T15:13:41.339Z,5.90
2018-01-15T15:16:09.606Z,5.87
2018-01-15T15:18:38.270Z,6.17
2018-01-15T15:21:05.798Z,5.03
2018-01-15T15:23:36.237Z,6.97
2018-01-15T15:26:03.742Z,7.13
2018-01-15T15:28:32.010Z,7.33
2018-01-15T15:31:00.295Z,7.00
2018-01-15T15:33:28.664Z,7.60
2018-01-15T15:35:56.182Z,7.97
2018-01-15T15:38:23.680Z,7.07
2018-01-15T15:40:51.939Z,7.20
2018-01-15T15:43:19.413Z,5.17
2018-01-15T15:45:47.664Z,8.93
2018-01-15T15:48:15.172Z,9.70
2018-01-15T15:50:43.409Z,8.40
2018-01-15T15:53:10.901Z,7.50
2018-01-15T15:55:38.426Z,8.50
2018-01-15T15:58:05.940Z,7.37
2018-01-15T16:00:33.421Z,9.20
2018-01-15T16:03:01.577Z,9.10
2018-01-15T16:05:29.901Z,9.63
2018-01-15T16:07:57.387Z,9.77
2018-01-15T16:10:25.214Z,8.87
2018-01-15T16:12:52.716Z,8.13
2018-01-15T16:15:20.528Z,8.93
2018-01-15T16:17:48.172Z,6.13
2018-01-15T16:20:16.588Z,7.73
2018-01-15T16:22:59.970Z,8.00
2018-01-15T16:25:27.483Z,7.40
2018-01-15T16:27:54.967Z,7.30
2018-01-15T16:30:22.459Z,7.67
2018-01-15T16:32:49.957Z,7.73
2018-01-15T16:35:17.520Z,8.27
2018-01-15T16:37:45.040Z,7.50
2018-01-15T16:40:12.592Z,6.17
2018-01-15T16:42:40.070Z,6.40
2018-01-15T16:45:07.573Z,8.27
2018-01-15T16:47:35.084Z,9.53
2018-01-15T16:50:08.161Z,7.20
2018-01-15T16:52:36.458Z,7.70
2018-01-15T16:55:03.942Z,7.70
2018-01-15T16:57:31.456Z,6.90
2018-01-15T16:59:58.937Z,7.90
2018-01-15T17:02:26.422Z,7.57
2018-01-15T17:04:53.931Z,6.93
2018-01-15T17:07:21.407Z,7.37
2018-01-15T17:09:49.681Z,7.77
2018-01-15T17:12:17.930Z,8.67
2018-01-15T17:14:46.188Z,7.00
2018-01-15T17:17:13.717Z,9.07
2018-01-15T17:19:41.203Z,7.20
2018-01-15T17:22:08.714Z,7.20
2018-01-15T17:24:36.199Z,9.80
2018-01-15T17:27:03.690Z,6.70
2018-01-15T17:29:31.167Z,8.03
2018-01-15T17:31:58.652Z,6.30
2018-01-15T17:34:26.128Z,5.20
2018-01-15T17:36:53.630Z,7.70
2018-01-15T17:39:21.119Z,6.63
2018-01-15T17:41:49.377Z,6.17
2018-01-15T17:44:16.858Z,7.47
2018-01-15T17:46:44.370Z,7.10
2018-01-15T17:49:11.868Z,6.07
2018-01-15T17:51:40.135Z,5.73
2018-01-15T17:54:07.657Z,4.23
2018-01-15T17:56:35.181Z,5.60
2018-01-15T17:59:02.681Z,5.67
2018-01-15T18:01:30.172Z,6.20
2018-01-15T18:03:57.678Z,5.30
2018-01-15T18:06:25.167Z,4.60
2018-01-15T18:08:52.658Z,5.17
2018-01-15T18:11:20.132Z,4.70
2018-01-15T18:13:47.626Z,5.73
2018-01-15T18:16:15.148Z,4.30
2018-01-15T18:18:42.634Z,3.87
2018-01-15T18:21:10.140Z,3.20
2018-01-15T18:23:38.399Z,4.60
2018-01-15T18:26:06.661Z,4.00
2018-01-15T18:28:34.142Z,3.40
2018-01-15T18:31:03.040Z,1.93
2018-01-15T18:33:30.524Z,3.43
2018-01-15T18:35:58.020Z,3.30
2018-01-15T18:38:25.520Z,3.37
2018-01-15T18:40:53.013Z,3.20
2018-01-15T18:43:20.502Z,2.70
2018-01-15T18:45:47.976Z,3.53
2018-01-15T18:48:16.559Z,3.67
2018-01-15T18:50:44.036Z,2.67
2018-01-15T18:53:11.528Z,2.40
2018-01-15T18:55:39.017Z,2.90
2018-01-15T18:58:06.499Z,2.80
2018-01-15T19:00:33.996Z,2.80
2018-01-15T19:03:01.483Z,2.60
2018-01-15T19:05:28.949Z,2.10
2018-01-15T19:07:56.438Z,2.63
2018-01-15T19:10:23.933Z,2.80
2018-01-15T19:12:51.437Z,1.80
2018-01-15T19:15:18.941Z,3.50
2018-01-15T19:17:46.435Z,2.50
2018-01-15T19:20:13.928Z,2.00
2018-01-15T19:22:41.717Z,1.60
2018-01-15T19:25:09.227Z,1.90
2018-01-15T19:27:37.006Z,1.73
2018-01-15T19:30:05.689Z,2.10
2018-01-15T19:32:33.232Z,2.10
2018-01-15T19:35:07.372Z,2.33
2018-01-15T19:37:39.509Z,1.83
2018-01-15T19:40:07.775Z,2.60
2018-01-15T19:42:35.300Z,2.20
2018-01-15T19:45:08.400Z,2.00
2018-01-15T19:47:42.346Z,2.10
2018-01-15T19:50:30.301Z,2.60
2018-01-15T19:53:03.439Z,3.50
2018-01-15T19:55:36.575Z,2.93
2018-01-15T19:58:09.645Z,2.00
2018-01-15T20:00:42.827Z,2.10
2018-01-15T20:03:16.024Z,3.23
2018-01-15T20:05:49.064Z,1.60
2018-01-15T20:08:22.165Z,2.17
2018-01-15T20:10:50.453Z,2.30
2018-01-15T20:13:17.979Z,1.67
2018-01-15T20:15:45.507Z,1.80
2018-01-15T20:18:13.754Z,1.47
2018-01-15T20:20:41.262Z,1.90
2018-01-15T20:23:08.801Z,1.83
2018-01-15T20:25:36.259Z,2.23
2018-01-15T20:28:03.733Z,2.00
2018-01-15T20:30:31.228Z,1.40
2018-01-15T20:32:58.740Z,2.07
2018-01-15T20:35:26.222Z,1.70
2018-01-15T20:37:54.487Z,1.73
2018-01-15T20:40:22.005Z,1.67
2018-01-15T20:42:50.423Z,1.60
2018-01-15T20:45:17.918Z,1.70
2018-01-15T20:47:45.419Z,2.00
2018-01-15T20:50:13.252Z,1.83
2018-01-15T20:52:40.737Z,1.50
2018-01-15T20:55:08.217Z,2.07
2018-01-15T20:57:35.743Z,2.60
2018-01-15T21:00:04.821Z,1.67
2018-01-15T21:02:32.533Z,2.20
2018-01-15T21:05:00.039Z,2.13
2018-01-15T21:07:27.553Z,3.53
2018-01-15T21:09:55.380Z,1.43
2018-01-15T21:12:22.844Z,1.87
2018-01-15T21:14:50.336Z,1.40
2018-01-15T21:17:17.839Z,3.00
2018-01-15T21:19:45.336Z,1.67
2018-01-15T21:22:12.835Z,2.80
2018-01-15T21:24:40.345Z,1.80
2018-01-15T21:27:08.568Z,2.17
2018-01-15T21:29:36.050Z,1.23
2018-01-15T21:32:03.572Z,2.70
2018-01-15T21:34:31.041Z,3.90
2018-01-15T21:36:58.556Z,4.43
2018-01-15T21:39:26.208Z,4.73
2018-01-15T21:41:53.717Z,2.30
2018-01-15T21:44:21.215Z,2.90
2018-01-15T21:46:48.711Z,1.50
2018-01-15T21:49:16.293Z,2.30
2018-01-15T21:51:43.826Z,1.33
2018-01-15T21:54:11.296Z,2.90
2018-01-15T21:56:38.811Z,1.80
2018-01-15T21:59:07.048Z,1.67
2018-01-15T22:01:34.530Z,1.30
2018-01-15T22:04:02.807Z,1.70
2018-01-15T22:06:30.317Z,1.90
2018-01-15T22:08:57.834Z,1.10
2018-01-15T22:11:25.306Z,1.50
2018-01-15T22:13:52.803Z,1.33
2018-01-15T22:16:20.293Z,1.30
2018-01-15T22:18:48.545Z,1.43
2018-01-15T22:21:16.333Z,1.30
2018-01-15T22:23:44.563Z,1.60
2018-01-15T22:26:12.057Z,1.20
2018-01-15T22:28:39.548Z,1.87
2018-01-15T22:31:07.020Z,1.37
2018-01-15T22:33:34.531Z,1.00
2018-01-15T22:36:02.034Z,1.10
2018-01-15T22:38:29.532Z,1.37
2018-01-15T22:40:57.019Z,1.30
2018-01-15T22:43:24.490Z,1.07
2018-01-15T22:45:52.014Z,0.87
2018-01-15T22:48:19.528Z,1.10
2018-01-15T22:50:47.017Z,1.23
2018-01-15T22:53:14.532Z,0.80
2018-01-15T22:55:42.026Z,1.10
2018-01-15T22:58:09.521Z,0.90
2018-01-15T23:00:37.773Z,0.97
2018-01-15T23:03:05.277Z,0.90
2018-01-15T23:05:32.795Z,0.80
2018-01-15T23:08:00.485Z,1.00
2018-01-15T23:10:29.026Z,0.80
2018-01-15T23:12:56.518Z,0.80
2018-01-15T23:15:24.742Z,0.93
2018-01-15T23:17:52.238Z,0.93
2018-01-15T23:20:20.504Z,1.13
2018-01-15T23:22:47.986Z,1.07
2018-01-15T23:25:15.487Z,0.90
2018-01-15T23:27:42.964Z,0.80
2018-01-15T23:30:10.439Z,0.80
2018-01-15T23:32:37.906Z,0.90
2018-01-15T23:35:06.182Z,0.70
2018-01-15T23:37:33.681Z,0.80
2018-01-15T23:40:01.155Z,0.70
2018-01-15T23:42:28.657Z,0.80
2018-01-15T23:44:56.991Z,0.90
2018-01-15T23:47:24.501Z,0.80
2018-01-15T23:49:52.074Z,0.80
2018-01-15T23:52:19.558Z,0.80
2018-01-15T23:54:47.043Z,0.83
2018-01-15T23:57:14.525Z,0.90
2018-01-15T23:59:42.979Z,0.90
